Time;durP1;ratioP1;P1;durP2;ratioP2;P2;SDS_P1;SDS_P2;PMS_P1;PMS_P2;Temp;Humidity;BMP_temperature;BMP_pressure;BME280_temperature;BME280_humidity;BME280_pressure;Samples;Min_cycle;Max_cycle;Signal;HPM_P1;HPM_P2
2022/11/22 00:01:41;;;;;;;8.82;2.17;;;;;;;;;;5056117;28;20048;-71
2022/11/22 00:04:07;;;;;;;6.82;1.42;;;;;;;;;;5055522;28;20043;-71
2022/11/22 00:06:34;;;;;;;4.32;0.85;;;;;;;;;;5055231;28;20400;-71
2022/11/22 00:09:00;;;;;;;6.05;1.30;;;;;;;;;;5055442;28;20049;-71
2022/11/22 00:11:26;;;;;;;5.35;1.13;;;;;;;;;;5055327;28;20048;-71
2022/11/22 00:13:52;;;;;;;6.43;1.52;;;;;;;;;;5055618;28;20512;-71
2022/11/22 00:16:18;;;;;;;9.60;1.48;;;;;;;;;;5055168;28;20037;-71
2022/11/22 00:18:44;;;;;;;5.80;1.05;;;;;;;;;;5055296;28;20045;-71
2022/11/22 00:21:10;;;;;;;8.82;1.13;;;;;;;;;;5055213;28;20045;-71
2022/11/22 00:23:36;;;;;;;4.10;1.58;;;;;;;;;;5055497;28;20072;-71
2022/11/22 00:26:02;;;;;;;8.20;1.65;;;;;;;;;;5054736;28;20060;-71
2022/11/22 00:28:29;;;;;;;10.02;3.00;;;;;;;;;;5055705;28;20546;-71
2022/11/22 00:30:55;;;;;;;7.03;2.03;;;;;;;;;;5055391;28;20053;-71
2022/11/22 00:33:21;;;;;;;8.27;2.20;;;;;;;;;;5055563;28;20029;-71
2022/11/22 00:35:47;;;;;;;7.72;1.60;;;;;;;;;;5055352;28;20041;-71
2022/11/22 00:38:13;;;;;;;6.55;1.67;;;;;;;;;;5054973;28;20041;-71
2022/11/22 00:40:39;;;;;;;6.53;1.73;;;;;;;;;;5054876;28;20565;-71
2022/11/22 00:43:05;;;;;;;11.82;2.03;;;;;;;;;;5054860;28;20057;-71
2022/11/22 00:45:31;;;;;;;10.00;1.95;;;;;;;;;;5054985;28;20511;-71
2022/11/22 00:47:57;;;;;;;6.03;1.95;;;;;;;;;;5055130;28;20037;-71
2022/11/22 00:50:23;;;;;;;9.85;1.52;;;;;;;;;;5055239;28;20045;-71
2022/11/22 00:52:50;;;;;;;8.73;1.45;;;;;;;;;;5055089;28;20029;-71
2022/11/22 00:55:16;;;;;;;9.38;1.95;;;;;;;;;;5054540;28;20507;-71
2022/11/22 00:57:42;;;;;;;7.90;1.40;;;;;;;;;;5054683;28;20450;-71
2022/11/22 01:00:08;;;;;;;9.93;1.38;;;;;;;;;;5055123;28;20049;-71
2022/11/22 01:02:34;;;;;;;7.22;1.20;;;;;;;;;;5054864;28;20037;-71
2022/11/22 01:05:00;;;;;;;6.55;1.15;;;;;;;;;;5054567;28;20484;-71
2022/11/22 01:07:27;;;;;;;5.88;1.00;;;;;;;;;;5055065;28;20041;-71
2022/11/22 01:09:53;;;;;;;9.13;1.35;;;;;;;;;;5054357;28;20519;-71
2022/11/22 01:12:19;;;;;;;4.53;1.15;;;;;;;;;;5054281;28;20069;-71
2022/11/22 01:14:45;;;;;;;5.50;1.20;;;;;;;;;;5055005;28;20484;-71
2022/11/22 01:17:11;;;;;;;8.07;1.48;;;;;;;;;;5054727;28;20041;-71
2022/11/22 01:19:37;;;;;;;6.13;1.85;;;;;;;;;;5054970;28;20049;-71
2022/11/22 01:22:03;;;;;;;7.35;1.30;;;;;;;;;;5053475;28;20033;-71
2022/11/22 01:24:29;;;;;;;7.65;1.23;;;;;;;;;;5052855;28;20488;-71
2022/11/22 01:26:55;;;;;;;7.25;1.17;;;;;;;;;;5052104;28;20139;-71
2022/11/22 01:29:21;;;;;;;8.75;1.50;;;;;;;;;;5053955;28;20033;-71
2022/11/22 01:31:48;;;;;;;8.95;1.23;;;;;;;;;;5053691;28;20056;-71
2022/11/22 01:34:14;;;;;;;8.40;1.45;;;;;;;;;;5053962;28;20041;-71
2022/11/22 01:36:40;;;;;;;6.00;0.98;;;;;;;;;;5054260;28;20033;-71
2022/11/22 01:39:06;;;;;;;6.22;0.93;;;;;;;;;;5057754;28;20432;-71
2022/11/22 01:41:32;;;;;;;5.43;1.65;;;;;;;;;;5057801;28;20098;-71
2022/11/22 01:44:16;;;;;;;5.20;0.90;;;;;;;;;;5058020;28;20053;-71
2022/11/22 01:46:42;;;;;;;5.55;0.80;;;;;;;;;;5058814;28;20028;-71
2022/11/22 01:49:34;;;;;;;7.53;1.17;;;;;;;;;;5058677;28;20236;-71
2022/11/22 01:52:05;;;;;;;9.68;1.40;;;;;;;;;;5057449;28;20526;-71
2022/11/22 01:54:33;;;;;;;7.18;1.58;;;;;;;;;;5057848;28;20071;-71
2022/11/22 01:57:03;;;;;;;6.10;1.15;;;;;;;;;;5057879;28;20068;-71
2022/11/22 01:59:30;;;;;;;7.95;1.25;;;;;;;;;;5058413;28;20584;-71
2022/11/22 02:01:56;;;;;;;6.82;2.08;;;;;;;;;;5057677;28;20048;-71
2022/11/22 02:04:23;;;;;;;5.30;0.93;;;;;;;;;;5058068;28;20045;-71
2022/11/22 02:07:10;;;;;;;3.13;1.00;;;;;;;;;;5057959;28;20128;-71
2022/11/22 02:09:37;;;;;;;4.90;1.02;;;;;;;;;;5057808;28;20103;-71
2022/11/22 02:12:04;;;;;;;5.47;0.88;;;;;;;;;;5057590;28;20043;-71
2022/11/22 02:14:31;;;;;;;3.97;0.85;;;;;;;;;;5058031;28;20132;-71
2022/11/22 02:16:57;;;;;;;3.05;0.60;;;;;;;;;;5057698;28;20159;-71
2022/11/22 02:19:32;;;;;;;2.00;0.65;;;;;;;;;;5058144;28;20070;-71
2022/11/22 02:22:02;;;;;;;2.25;0.20;;;;;;;;;;5058009;28;20076;-71
2022/11/22 02:24:35;;;;;;;0.57;0.20;;;;;;;;;;5057579;28;20048;-71
2022/11/22 02:27:02;;;;;;;1.83;0.20;;;;;;;;;;5056921;28;20283;-71
2022/11/22 02:29:30;;;;;;;0.98;0.40;;;;;;;;;;5057878;28;20076;-71
2022/11/22 02:31:56;;;;;;;0.40;0.20;;;;;;;;;;5057133;28;20041;-71
2022/11/22 02:34:22;;;;;;;0.25;0.20;;;;;;;;;;5057367;28;20037;-71
2022/11/22 02:36:50;;;;;;;0.45;0.20;;;;;;;;;;5057333;28;20045;-71
2022/11/22 02:39:17;;;;;;;0.15;0.10;;;;;;;;;;5057241;28;20044;-71
2022/11/22 02:41:44;;;;;;;0.68;0.20;;;;;;;;;;5056953;28;20052;-71
2022/11/22 02:44:10;;;;;;;1.52;0.25;;;;;;;;;;5057196;28;20099;-71
2022/11/22 02:46:45;;;;;;;0.40;0.30;;;;;;;;;;5056877;28;20045;-71
2022/11/22 02:49:11;;;;;;;0.13;0.13;;;;;;;;;;5056437;28;20041;-71
2022/11/22 02:51:37;;;;;;;0.10;0.10;;;;;;;;;;5057077;28;20045;-71
2022/11/22 02:54:03;;;;;;;0.38;0.13;;;;;;;;;;5057183;28;20037;-71
2022/11/22 02:56:30;;;;;;;0.13;0.13;;;;;;;;;;5056496;28;20045;-71
2022/11/22 02:58:56;;;;;;;0.10;0.10;;;;;;;;;;5057464;28;20044;-71
2022/11/22 03:01:22;;;;;;;0.22;0.22;;;;;;;;;;5056501;28;20056;-71
2022/11/22 03:03:48;;;;;;;0.15;0.15;;;;;;;;;;5056830;28;20041;-71
2022/11/22 03:06:14;;;;;;;1.30;0.20;;;;;;;;;;5056774;28;20056;-71
2022/11/22 03:08:40;;;;;;;0.63;0.40;;;;;;;;;;5056720;28;20496;-71
2022/11/22 03:11:06;;;;;;;1.20;0.47;;;;;;;;;;5056611;28;20080;-71
2022/11/22 03:13:32;;;;;;;0.55;0.30;;;;;;;;;;5056650;28;20486;-71
2022/11/22 03:15:58;;;;;;;0.10;0.10;;;;;;;;;;5056578;28;20136;-71
2022/11/22 03:18:25;;;;;;;0.30;0.20;;;;;;;;;;5056561;28;20045;-71
2022/11/22 03:20:51;;;;;;;0.93;0.20;;;;;;;;;;5056497;28;20183;-71
2022/11/22 03:23:17;;;;;;;0.80;0.20;;;;;;;;;;5056454;28;20045;-71
2022/11/22 03:25:43;;;;;;;2.00;0.20;;;;;;;;;;5056001;28;20056;-71
2022/11/22 03:28:09;;;;;;;0.85;0.13;;;;;;;;;;5056355;28;20044;-71
2022/11/22 03:30:38;;;;;;;1.17;0.10;;;;;;;;;;5056464;28;20049;-71
2022/11/22 03:33:04;;;;;;;0.20;0.20;;;;;;;;;;5056273;28;20045;-71
2022/11/22 03:35:30;;;;;;;0.10;0.10;;;;;;;;;;5056210;28;20061;-71
2022/11/22 03:37:57;;;;;;;0.10;0.10;;;;;;;;;;5056173;28;20051;-71
2022/11/22 03:40:23;;;;;;;0.10;0.10;;;;;;;;;;5055368;28;20103;-71
2022/11/22 03:42:49;;;;;;;0.10;0.10;;;;;;;;;;5056102;28;20045;-71
2022/11/22 03:45:15;;;;;;;0.10;0.10;;;;;;;;;;5056054;28;20061;-71
2022/11/22 03:47:41;;;;;;;0.43;0.20;;;;;;;;;;5056242;28;20511;-71
2022/11/22 03:50:07;;;;;;;0.10;0.10;;;;;;;;;;5056218;28;20115;-71
2022/11/22 03:52:33;;;;;;;0.10;0.10;;;;;;;;;;5055596;28;20467;-71
2022/11/22 03:54:59;;;;;;;0.10;0.10;;;;;;;;;;5055391;28;20040;-71
2022/11/22 03:57:25;;;;;;;0.75;0.10;;;;;;;;;;5056274;28;20037;-71
2022/11/22 03:59:52;;;;;;;0.30;0.15;;;;;;;;;;5055075;28;20045;-71
2022/11/22 04:02:18;;;;;;;0.13;0.13;;;;;;;;;;5055942;28;20044;-71
2022/11/22 04:04:44;;;;;;;1.35;0.20;;;;;;;;;;5055657;28;20420;-71
2022/11/22 04:07:10;;;;;;;0.10;0.10;;;;;;;;;;5055607;28;20029;-71
2022/11/22 04:09:36;;;;;;;0.20;0.20;;;;;;;;;;5055959;28;20073;-71
2022/11/22 04:12:02;;;;;;;1.30;0.20;;;;;;;;;;5055065;28;20120;-71
2022/11/22 04:17:39;;;;;;;1.05;0.10;;;;;;;;;;5054868;28;20167;-71
2022/11/22 04:22:54;;;;;;;0.85;0.60;;;;;;;;;;5053754;28;20512;-71
2022/11/22 04:25:20;;;;;;;0.88;0.20;;;;;;;;;;5054345;28;20506;-71
2022/11/22 04:27:47;;;;;;;0.20;0.20;;;;;;;;;;5055558;28;20029;-71
2022/11/22 04:30:13;;;;;;;0.20;0.10;;;;;;;;;;5055428;28;20044;-71
2022/11/22 04:32:45;;;;;;;0.35;0.10;;;;;;;;;;5055164;28;20072;-71
2022/11/22 04:35:12;;;;;;;0.10;0.10;;;;;;;;;;5055029;28;20053;-71
2022/11/22 04:37:38;;;;;;;0.63;0.20;;;;;;;;;;5054786;28;20037;-71
2022/11/22 04:40:05;;;;;;;0.45;0.20;;;;;;;;;;5054901;28;20056;-71
2022/11/22 04:45:16;;;;;;;0.10;0.10;;;;;;;;;;5054385;28;20456;-71
2022/11/22 04:48:00;;;;;;;0.28;0.20;;;;;;;;;;5055458;28;20033;-71
2022/11/22 04:53:11;;;;;;;0.10;0.10;;;;;;;;;;5054296;28;20403;-71
2022/11/22 04:55:38;;;;;;;1.15;0.10;;;;;;;;;;5054558;28;20103;-71
2022/11/22 04:58:04;;;;;;;0.40;0.17;;;;;;;;;;5054614;28;20037;-71
2022/11/22 05:00:31;;;;;;;0.10;0.10;;;;;;;;;;5072959;28;20131;-70
2022/11/22 05:02:57;;;;;;;0.03;0.03;;;;;;;;;;5075220;28;20040;-69
2022/11/22 05:05:24;;;;;;;0.20;0.20;;;;;;;;;;5059331;28;20121;-70
2022/11/22 05:07:50;;;;;;;0.20;0.10;;;;;;;;;;5053147;28;20072;-70
2022/11/22 05:10:16;;;;;;;0.10;0.10;;;;;;;;;;5052571;28;20060;-71
2022/11/22 05:12:42;;;;;;;0.17;0.10;;;;;;;;;;5053268;28;20098;-72
2022/11/22 05:15:10;;;;;;;0.60;0.17;;;;;;;;;;5054062;28;20062;-72
2022/11/22 05:17:37;;;;;;;0.10;0.10;;;;;;;;;;5054971;28;20518;-72
2022/11/22 05:20:03;;;;;;;0.52;0.10;;;;;;;;;;5053139;28;20048;-72
2022/11/22 05:25:14;;;;;;;0.50;0.10;;;;;;;;;;5052865;28;20064;-72
2022/11/22 05:27:40;;;;;;;0.20;0.10;;;;;;;;;;5052930;28;20071;-73
2022/11/22 05:30:07;;;;;;;0.03;0.03;;;;;;;;;;5053765;28;20056;-73
2022/11/22 05:32:33;;;;;;;0.38;0.17;;;;;;;;;;5053069;28;20583;-73
2022/11/22 05:34:59;;;;;;;0.70;0.20;;;;;;;;;;5053609;28;20047;-73
2022/11/22 05:37:26;;;;;;;0.10;0.10;;;;;;;;;;5054094;28;20037;-73
2022/11/22 05:39:52;;;;;;;0.20;0.10;;;;;;;;;;5054297;28;20187;-74
2022/11/22 05:42:18;;;;;;;0.20;0.20;;;;;;;;;;5054203;28;20033;-74
2022/11/22 05:44:44;;;;;;;0.10;0.10;;;;;;;;;;5054324;28;20041;-73
2022/11/22 05:47:11;;;;;;;0.15;0.13;;;;;;;;;;5052591;28;20041;-73
2022/11/22 05:49:37;;;;;;;0.10;0.10;;;;;;;;;;5053219;28;20111;-74
2022/11/22 05:52:03;;;;;;;0.28;0.20;;;;;;;;;;5054064;28;20044;-74
2022/11/22 05:54:30;;;;;;;0.10;0.10;;;;;;;;;;5053655;28;20044;-73
2022/11/22 05:56:56;;;;;;;0.45;0.25;;;;;;;;;;5052320;28;20040;-73
2022/11/22 05:59:22;;;;;;;0.40;0.10;;;;;;;;;;5051996;28;20060;-73
2022/11/22 06:01:48;;;;;;;0.22;0.20;;;;;;;;;;5053687;28;20049;-73
2022/11/22 06:04:14;;;;;;;0.57;0.10;;;;;;;;;;5053532;28;20040;-73
2022/11/22 06:06:40;;;;;;;0.45;0.28;;;;;;;;;;5051621;28;20041;-73
2022/11/22 06:09:07;;;;;;;1.65;0.38;;;;;;;;;;5053301;28;20078;-73
2022/11/22 06:11:33;;;;;;;0.10;0.10;;;;;;;;;;5050157;28;20591;-73
2022/11/22 06:14:02;;;;;;;0.13;0.10;;;;;;;;;;5052558;28;20420;-73
2022/11/22 06:16:28;;;;;;;0.20;0.20;;;;;;;;;;5053142;28;20518;-73
2022/11/22 06:18:54;;;;;;;0.93;0.30;;;;;;;;;;5052558;28;20516;-73
2022/11/22 06:21:24;;;;;;;0.77;0.28;;;;;;;;;;5052857;28;20045;-74
2022/11/22 06:23:54;;;;;;;0.73;0.20;;;;;;;;;;5053567;28;20102;-74
2022/11/22 06:26:20;;;;;;;0.20;0.20;;;;;;;;;;5055051;28;20053;-73
2022/11/22 06:28:47;;;;;;;1.27;0.20;;;;;;;;;;5055764;28;20577;-73
2022/11/22 06:31:15;;;;;;;0.10;0.10;;;;;;;;;;5056565;28;20052;-74
2022/11/22 06:33:41;;;;;;;0.15;0.10;;;;;;;;;;5056028;28;20044;-74
2022/11/22 06:36:08;;;;;;;1.67;0.43;;;;;;;;;;5057033;28;20033;-75
2022/11/22 06:38:35;;;;;;;0.98;0.40;;;;;;;;;;5056896;28;20028;-74
2022/11/22 06:41:01;;;;;;;56.22;37.95;;;;;;;;;;5057305;28;20247;-75
2022/11/22 06:43:29;;;;;;;0.82;0.63;;;;;;;;;;5056623;28;20068;-74
2022/11/22 06:45:56;;;;;;;0.13;0.13;;;;;;;;;;5057118;28;20044;-73
2022/11/22 06:48:23;;;;;;;0.57;0.20;;;;;;;;;;5056847;28;20040;-73
2022/11/22 06:50:49;;;;;;;0.20;0.20;;;;;;;;;;5057200;28;20053;-73
2022/11/22 06:53:15;;;;;;;0.13;0.13;;;;;;;;;;5056753;28;20037;-73
2022/11/22 06:55:41;;;;;;;0.20;0.10;;;;;;;;;;5056797;28;20037;-73
2022/11/22 06:58:07;;;;;;;0.10;0.10;;;;;;;;;;5056945;28;20033;-74
2022/11/22 07:00:33;;;;;;;1.10;0.60;;;;;;;;;;5056797;28;20089;-74
2022/11/22 07:02:59;;;;;;;0.85;0.50;;;;;;;;;;5057087;28;20045;-74
2022/11/22 07:05:25;;;;;;;2.25;0.90;;;;;;;;;;5056518;28;20060;-74
2022/11/22 07:07:52;;;;;;;1.98;1.15;;;;;;;;;;5056912;28;20041;-74
2022/11/22 07:10:18;;;;;;;2.35;1.20;;;;;;;;;;5056474;28;20496;-74
2022/11/22 07:12:44;;;;;;;2.00;1.10;;;;;;;;;;5056923;28;20044;-73
2022/11/22 07:15:10;;;;;;;1.17;0.60;;;;;;;;;;5056288;28;20376;-71
2022/11/22 07:17:36;;;;;;;0.38;0.38;;;;;;;;;;5056415;28;20483;-73
2022/11/22 07:20:02;;;;;;;0.30;0.28;;;;;;;;;;5055409;28;20056;-74
2022/11/22 07:22:29;;;;;;;0.40;0.20;;;;;;;;;;5056158;28;20047;-73
2022/11/22 07:24:55;;;;;;;1.08;0.20;;;;;;;;;;5055810;28;20114;-74
2022/11/22 07:27:21;;;;;;;0.20;0.20;;;;;;;;;;5056581;28;20512;-74
2022/11/22 07:29:47;;;;;;;0.15;0.15;;;;;;;;;;5057082;28;20037;-74
2022/11/22 07:32:13;;;;;;;0.35;0.32;;;;;;;;;;5056651;28;20033;-73
2022/11/22 07:34:39;;;;;;;0.68;0.52;;;;;;;;;;5056640;28;20044;-73
2022/11/22 07:37:05;;;;;;;0.10;0.10;;;;;;;;;;5056434;28;20368;-74
2022/11/22 07:39:31;;;;;;;0.10;0.10;;;;;;;;;;5056241;28;20044;-74
2022/11/22 07:41:57;;;;;;;0.30;0.30;;;;;;;;;;5056610;28;20048;-74
2022/11/22 07:44:24;;;;;;;1.20;0.40;;;;;;;;;;5056297;28;20039;-74
2022/11/22 07:46:51;;;;;;;0.10;0.10;;;;;;;;;;5056024;28;20128;-74
2022/11/22 07:49:17;;;;;;;0.30;0.30;;;;;;;;;;5056001;28;20041;-74
2022/11/22 07:51:43;;;;;;;1.60;0.70;;;;;;;;;;5056251;28;20102;-73
2022/11/22 07:54:12;;;;;;;0.30;0.30;;;;;;;;;;5056081;28;20044;-74
2022/11/22 07:56:38;;;;;;;0.50;0.45;;;;;;;;;;5055901;28;20029;-73
2022/11/22 07:59:04;;;;;;;0.52;0.20;;;;;;;;;;5056552;28;20163;-73
2022/11/22 08:01:31;;;;;;;0.93;0.32;;;;;;;;;;5055895;28;20127;-74
2022/11/22 08:03:57;;;;;;;0.82;0.20;;;;;;;;;;5055870;28;20071;-74
2022/11/22 08:06:23;;;;;;;0.30;0.30;;;;;;;;;;5056262;28;20043;-74
2022/11/22 08:08:49;;;;;;;1.02;0.60;;;;;;;;;;5055728;28;20568;-74
2022/11/22 08:11:15;;;;;;;1.25;0.60;;;;;;;;;;5055738;28;20041;-74
2022/11/22 08:13:42;;;;;;;2.10;0.55;;;;;;;;;;5055510;28;20392;-74
2022/11/22 08:16:10;;;;;;;3.97;1.38;;;;;;;;;;5055518;28;20040;-74
2022/11/22 08:18:37;;;;;;;1.30;0.80;;;;;;;;;;5055714;28;20037;-74
2022/11/22 08:21:04;;;;;;;2.35;0.80;;;;;;;;;;5055664;28;20036;-74
2022/11/22 08:23:30;;;;;;;3.50;0.85;;;;;;;;;;5055351;28;20094;-74
2022/11/22 08:25:57;;;;;;;1.67;0.70;;;;;;;;;;5055023;28;20432;-74
2022/11/22 08:28:24;;;;;;;2.63;0.70;;;;;;;;;;5055194;28;20048;-74
2022/11/22 08:30:50;;;;;;;2.33;1.08;;;;;;;;;;5055224;28;20052;-74
2022/11/22 08:33:17;;;;;;;0.93;0.55;;;;;;;;;;5055664;28;20104;-74
2022/11/22 08:35:43;;;;;;;1.52;0.60;;;;;;;;;;5055415;28;20040;-73
2022/11/22 08:38:09;;;;;;;3.05;0.45;;;;;;;;;;5054809;28;20083;-74
2022/11/22 08:40:35;;;;;;;0.35;0.35;;;;;;;;;;5054931;28;20045;-74
2022/11/22 08:43:01;;;;;;;0.32;0.32;;;;;;;;;;5054733;28;20051;-74
2022/11/22 08:45:28;;;;;;;0.63;0.43;;;;;;;;;;5054681;28;20041;-74
2022/11/22 08:47:57;;;;;;;0.40;0.30;;;;;;;;;;5054500;28;20033;-74
2022/11/22 08:50:23;;;;;;;0.60;0.40;;;;;;;;;;5054728;28;20132;-74
2022/11/22 08:52:49;;;;;;;0.32;0.20;;;;;;;;;;5054828;28;20072;-74
2022/11/22 08:55:15;;;;;;;0.30;0.30;;;;;;;;;;5054352;28;20118;-74
2022/11/22 08:57:41;;;;;;;0.13;0.13;;;;;;;;;;5054749;28;20033;-74
2022/11/22 09:00:08;;;;;;;0.50;0.30;;;;;;;;;;5054811;28;20075;-74
2022/11/22 09:02:34;;;;;;;0.20;0.20;;;;;;;;;;5054386;28;20411;-74
2022/11/22 09:05:00;;;;;;;0.30;0.22;;;;;;;;;;5054381;28;20041;-74
2022/11/22 09:07:27;;;;;;;0.45;0.20;;;;;;;;;;5054335;28;20075;-74
2022/11/22 09:09:54;;;;;;;0.90;0.30;;;;;;;;;;5054113;28;20056;-74
2022/11/22 09:12:20;;;;;;;0.20;0.10;;;;;;;;;;5054787;28;20480;-74
2022/11/22 09:14:46;;;;;;;0.30;0.30;;;;;;;;;;5054760;28;20036;-74
2022/11/22 09:17:12;;;;;;;0.32;0.30;;;;;;;;;;5054508;28;20044;-74
2022/11/22 09:19:38;;;;;;;0.25;0.25;;;;;;;;;;5054684;28;20044;-74
2022/11/22 09:22:04;;;;;;;0.30;0.10;;;;;;;;;;5054379;28;20045;-74
2022/11/22 09:24:30;;;;;;;0.30;0.30;;;;;;;;;;5054113;28;20048;-73
2022/11/22 09:26:56;;;;;;;0.20;0.20;;;;;;;;;;5054301;28;20057;-74
2022/11/22 09:29:24;;;;;;;0.35;0.35;;;;;;;;;;5054900;28;20029;-73
2022/11/22 09:31:50;;;;;;;0.90;0.50;;;;;;;;;;5054547;28;20037;-73
2022/11/22 09:34:16;;;;;;;2.10;0.85;;;;;;;;;;5054802;28;20480;-74
2022/11/22 09:36:42;;;;;;;0.63;0.60;;;;;;;;;;5054865;28;20037;-74
2022/11/22 09:39:08;;;;;;;1.25;0.82;;;;;;;;;;5054723;28;20045;-74
2022/11/22 09:41:47;;;;;;;1.95;0.85;;;;;;;;;;5054149;28;20040;-74
2022/11/22 09:44:13;;;;;;;0.65;0.45;;;;;;;;;;5054542;28;20512;-74
2022/11/22 09:46:42;;;;;;;1.15;0.70;;;;;;;;;;5054228;28;20098;-73
2022/11/22 09:49:08;;;;;;;1.05;0.60;;;;;;;;;;5054422;28;20125;-73
2022/11/22 09:51:43;;;;;;;3.30;0.90;;;;;;;;;;5054486;28;20162;-73
2022/11/22 09:54:31;;;;;;;3.15;0.80;;;;;;;;;;5054783;28;20049;-74
2022/11/22 09:57:01;;;;;;;1.67;0.90;;;;;;;;;;5054367;28;20511;-74
2022/11/22 09:59:38;;;;;;;1.33;0.63;;;;;;;;;;5056292;28;20044;-74
2022/11/22 10:02:12;;;;;;;1.70;0.88;;;;;;;;;;5058624;28;20041;-73
2022/11/22 10:04:40;;;;;;;1.67;0.70;;;;;;;;;;5058504;28;20041;-73
2022/11/22 10:07:12;;;;;;;0.88;0.60;;;;;;;;;;5058372;28;20098;-73
2022/11/22 10:09:41;;;;;;;1.83;1.15;;;;;;;;;;5058409;28;20051;-73
2022/11/22 10:12:14;;;;;;;1.60;0.60;;;;;;;;;;5057997;28;20504;-73
2022/11/22 10:14:52;;;;;;;1.35;0.68;;;;;;;;;;5058375;28;20071;-73
2022/11/22 10:17:18;;;;;;;1.00;0.70;;;;;;;;;;5058602;28;20121;-73
2022/11/22 10:19:47;;;;;;;4.45;2.08;;;;;;;;;;5058206;28;20033;-73
2022/11/22 10:22:14;;;;;;;1.80;0.68;;;;;;;;;;5057671;28;20049;-73
2022/11/22 10:24:40;;;;;;;3.03;0.63;;;;;;;;;;5057922;28;20077;-74
2022/11/22 10:27:15;;;;;;;1.20;0.70;;;;;;;;;;5058129;28;20056;-73
2022/11/22 10:29:47;;;;;;;0.73;0.52;;;;;;;;;;5057530;28;20480;-73
2022/11/22 10:32:28;;;;;;;1.00;0.57;;;;;;;;;;5057869;28;20041;-73
2022/11/22 10:35:07;;;;;;;0.95;0.50;;;;;;;;;;5057717;28;20072;-74
2022/11/22 10:37:52;;;;;;;1.55;0.70;;;;;;;;;;5058306;28;20102;-73
2022/11/22 10:40:30;;;;;;;1.00;0.50;;;;;;;;;;5057490;28;20080;-73
2022/11/22 10:42:59;;;;;;;1.38;0.68;;;;;;;;;;5057614;28;20045;-73
2022/11/22 10:45:35;;;;;;;2.17;0.50;;;;;;;;;;5057769;28;20037;-73
2022/11/22 10:48:08;;;;;;;0.40;0.38;;;;;;;;;;5057146;28;20044;-74
2022/11/22 10:50:37;;;;;;;1.45;0.40;;;;;;;;;;5056990;28;20538;-73
2022/11/22 10:53:09;;;;;;;1.92;0.60;;;;;;;;;;5057432;28;20028;-73
2022/11/22 10:55:35;;;;;;;0.82;0.57;;;;;;;;;;5057239;28;20037;-73
2022/11/22 10:58:07;;;;;;;1.98;0.68;;;;;;;;;;5057278;28;20044;-73
2022/11/22 11:00:35;;;;;;;0.90;0.40;;;;;;;;;;5056987;28;20048;-73
2022/11/22 11:03:13;;;;;;;2.47;0.98;;;;;;;;;;5057201;28;20045;-73
2022/11/22 11:05:59;;;;;;;1.48;0.57;;;;;;;;;;5057156;28;20536;-73
2022/11/22 11:08:37;;;;;;;3.38;0.80;;;;;;;;;;5056996;28;20048;-73
2022/11/22 11:11:04;;;;;;;4.85;0.90;;;;;;;;;;5056373;28;20573;-73
2022/11/22 11:13:39;;;;;;;2.63;0.60;;;;;;;;;;5056649;28;20083;-73
2022/11/22 11:16:09;;;;;;;1.58;0.65;;;;;;;;;;5056905;28;20476;-73
2022/11/22 11:18:39;;;;;;;1.23;0.60;;;;;;;;;;5056620;28;20091;-74
2022/11/22 11:21:06;;;;;;;3.38;0.90;;;;;;;;;;5057096;28;20041;-73
2022/11/22 11:23:33;;;;;;;0.70;0.43;;;;;;;;;;5056794;28;20044;-73
2022/11/22 11:26:14;;;;;;;0.52;0.30;;;;;;;;;;5056497;28;20061;-73
2022/11/22 11:28:40;;;;;;;1.20;0.57;;;;;;;;;;5057025;28;20045;-73
2022/11/22 11:31:08;;;;;;;2.05;0.80;;;;;;;;;;5056944;28;20076;-74
2022/11/22 11:33:37;;;;;;;2.97;1.00;;;;;;;;;;5056497;28;20033;-73
2022/11/22 11:36:20;;;;;;;2.83;0.90;;;;;;;;;;5057139;28;20123;-73
2022/11/22 11:38:57;;;;;;;1.60;1.02;;;;;;;;;;5056527;28;20041;-74
2022/11/22 11:41:29;;;;;;;3.08;0.98;;;;;;;;;;5056095;28;20048;-73
2022/11/22 11:43:56;;;;;;;3.17;1.02;;;;;;;;;;5056374;28;20037;-73
2022/11/22 11:46:49;;;;;;;1.90;0.90;;;;;;;;;;5056365;28;20045;-73
2022/11/22 11:49:16;;;;;;;2.70;1.10;;;;;;;;;;5055081;28;20045;-73
2022/11/22 11:51:43;;;;;;;4.72;1.38;;;;;;;;;;5056301;28;20044;-74
2022/11/22 11:54:11;;;;;;;1.92;0.60;;;;;;;;;;5055871;28;20365;-73
2022/11/22 11:56:56;;;;;;;2.28;0.70;;;;;;;;;;5056037;28;20476;-73
2022/11/22 11:59:25;;;;;;;1.60;0.80;;;;;;;;;;5056701;28;20036;-73
2022/11/22 12:01:56;;;;;;;1.23;0.93;;;;;;;;;;5056275;28;20087;-73
2022/11/22 12:04:28;;;;;;;1.83;0.60;;;;;;;;;;5055977;28;20132;-73
2022/11/22 12:07:12;;;;;;;0.88;0.50;;;;;;;;;;5055972;28;20068;-74
2022/11/22 12:09:43;;;;;;;1.02;0.57;;;;;;;;;;5056293;28;20033;-73
2022/11/22 12:12:09;;;;;;;;;;;;;;;;;;5055937;28;20110;-73
2022/11/22 12:14:37;;;;;;;0.47;0.38;;;;;;;;;;5055848;28;19908;-74
2022/11/22 12:17:07;;;;;;;1.20;0.50;;;;;;;;;;5055790;28;20041;-73
2022/11/22 12:19:49;;;;;;;2.45;1.10;;;;;;;;;;5055797;28;20083;-73
2022/11/22 12:22:32;;;;;;;1.85;0.60;;;;;;;;;;5054972;28;20127;-73
2022/11/22 12:25:19;;;;;;;3.92;1.35;;;;;;;;;;5055167;28;20049;-74
2022/11/22 12:27:45;;;;;;;0.50;0.40;;;;;;;;;;5050959;28;20120;-73
2022/11/22 12:30:12;;;;;;;4.13;0.93;;;;;;;;;;5055398;28;20041;-74
2022/11/22 12:32:47;;;;;;;2.00;0.70;;;;;;;;;;5054874;28;20404;-73
2022/11/22 12:35:16;;;;;;;1.02;0.55;;;;;;;;;;5055019;28;20037;-74
2022/11/22 12:37:51;;;;;;;3.60;1.10;;;;;;;;;;5054818;28;20045;-74
2022/11/22 12:40:20;;;;;;;3.35;0.77;;;;;;;;;;5054936;28;20047;-74
2022/11/22 12:42:52;;;;;;;2.35;0.93;;;;;;;;;;5054704;28;20076;-74
2022/11/22 12:45:44;;;;;;;1.65;0.93;;;;;;;;;;5054817;28;20496;-73
2022/11/22 12:48:16;;;;;;;1.38;0.50;;;;;;;;;;5053812;28;20087;-74
2022/11/22 12:50:48;;;;;;;0.80;0.60;;;;;;;;;;5055022;28;20041;-74
2022/11/22 12:53:15;;;;;;;2.15;0.55;;;;;;;;;;5055178;28;20219;-73
2022/11/22 12:55:44;;;;;;;3.30;0.60;;;;;;;;;;5054645;28;20036;-74
2022/11/22 12:58:18;;;;;;;1.55;0.90;;;;;;;;;;5055321;28;20047;-73
2022/11/22 13:00:49;;;;;;;2.83;0.80;;;;;;;;;;5054787;28;20119;-74
2022/11/22 13:03:20;;;;;;;2.40;0.73;;;;;;;;;;5055017;28;20098;-73
2022/11/22 13:05:53;;;;;;;1.02;0.50;;;;;;;;;;5058634;28;20036;-73
2022/11/22 13:08:28;;;;;;;0.70;0.40;;;;;;;;;;5075109;28;20127;-73
2022/11/22 13:11:08;;;;;;;1.00;0.70;;;;;;;;;;5074159;28;20044;-73
2022/11/22 13:13:39;;;;;;;1.42;1.02;;;;;;;;;;5074935;28;20076;-73
2022/11/22 13:16:09;;;;;;;1.45;0.73;;;;;;;;;;5074886;28;20063;-73
2022/11/22 13:18:51;;;;;;;1.65;0.82;;;;;;;;;;5074473;28;20127;-73
2022/11/22 13:21:23;;;;;;;0.77;0.50;;;;;;;;;;5074771;28;20063;-73
2022/11/22 13:24:10;;;;;;;3.47;0.95;;;;;;;;;;5073145;28;20040;-73
2022/11/22 13:26:54;;;;;;;2.22;1.30;;;;;;;;;;5074745;28;20056;-73
2022/11/22 13:29:23;;;;;;;4.00;0.70;;;;;;;;;;5075003;28;20066;-73
2022/11/22 13:32:03;;;;;;;2.00;0.70;;;;;;;;;;5074669;28;20044;-73
2022/11/22 13:34:30;;;;;;;2.75;0.82;;;;;;;;;;5078800;28;20524;-73
2022/11/22 13:37:04;;;;;;;1.23;0.60;;;;;;;;;;5051911;28;20041;-73
2022/11/22 13:39:30;;;;;;;3.22;1.40;;;;;;;;;;5041082;28;20053;-73
2022/11/22 13:41:56;;;;;;;2.97;1.30;;;;;;;;;;5041044;28;20064;-73
2022/11/22 13:44:22;;;;;;;2.70;1.20;;;;;;;;;;5041015;28;20041;-73
2022/11/22 13:46:49;;;;;;;2.17;1.17;;;;;;;;;;5041327;28;20111;-72
2022/11/22 13:49:21;;;;;;;2.72;1.30;;;;;;;;;;5041668;28;20072;-72
2022/11/22 13:51:50;;;;;;;3.10;1.65;;;;;;;;;;5040827;28;20068;-71
2022/11/22 13:54:35;;;;;;;2.20;0.90;;;;;;;;;;5041118;28;20046;-71
2022/11/22 13:57:03;;;;;;;3.95;1.20;;;;;;;;;;5040967;28;20044;-73
2022/11/22 13:59:30;;;;;;;2.45;1.52;;;;;;;;;;5041243;28;20488;-71
2022/11/22 14:02:00;;;;;;;1.65;1.08;;;;;;;;;;5041391;28;20595;-72
2022/11/22 14:04:26;;;;;;;2.42;1.42;;;;;;;;;;5041262;28;20052;-74
2022/11/22 14:07:06;;;;;;;2.45;1.35;;;;;;;;;;5040716;28;20041;-73
2022/11/22 14:09:39;;;;;;;1.75;1.13;;;;;;;;;;5040508;28;20060;-74
2022/11/22 14:12:38;;;;;;;1.65;0.85;;;;;;;;;;5040121;28;20104;-73
2022/11/22 14:15:23;;;;;;;1.17;0.80;;;;;;;;;;5028171;28;20045;-74
2022/11/22 14:18:08;;;;;;;1.02;0.68;;;;;;;;;;5040286;28;20030;-73
2022/11/22 14:20:45;;;;;;;1.35;0.70;;;;;;;;;;5040622;28;20045;-74
2022/11/22 14:23:33;;;;;;;1.73;1.00;;;;;;;;;;5040477;28;20050;-74
2022/11/22 14:26:26;;;;;;;0.93;0.47;;;;;;;;;;5040185;28;20068;-74
2022/11/22 14:29:15;;;;;;;0.40;0.32;;;;;;;;;;5038923;28;20041;-74
2022/11/22 14:31:42;;;;;;;0.75;0.43;;;;;;;;;;5037020;28;20082;-73
2022/11/22 14:34:16;;;;;;;0.55;0.35;;;;;;;;;;5039952;28;20068;-74
2022/11/22 14:36:42;;;;;;;1.35;0.60;;;;;;;;;;5040112;28;20051;-73
2022/11/22 14:39:38;;;;;;;0.50;0.30;;;;;;;;;;5039879;28;20041;-74
2022/11/22 14:42:24;;;;;;;1.10;0.50;;;;;;;;;;5034667;28;20120;-73
2022/11/22 14:44:51;;;;;;;2.15;0.57;;;;;;;;;;5037311;28;20128;-73
2022/11/22 14:47:17;;;;;;;1.58;0.50;;;;;;;;;;5036654;28;20465;-73
2022/11/22 14:49:45;;;;;;;0.52;0.40;;;;;;;;;;5036772;28;20132;-73
2022/11/22 14:52:22;;;;;;;2.13;0.70;;;;;;;;;;5036838;28;20056;-73
2022/11/22 14:54:50;;;;;;;1.17;0.57;;;;;;;;;;5036611;28;20059;-74
2022/11/22 14:57:19;;;;;;;2.28;0.65;;;;;;;;;;5036400;28;20114;-73
2022/11/22 14:59:45;;;;;;;4.85;1.00;;;;;;;;;;5036745;28;20042;-73
2022/11/22 15:02:30;;;;;;;1.48;0.70;;;;;;;;;;5036606;28;20488;-73
2022/11/22 15:05:15;;;;;;;1.13;0.57;;;;;;;;;;5036802;28;20516;-74
2022/11/22 15:07:56;;;;;;;2.20;0.60;;;;;;;;;;5036764;28;20038;-74
2022/11/22 15:10:22;;;;;;;1.95;0.60;;;;;;;;;;5036073;28;20056;-74